ADDS METAR Data INFO
IDs: Format: Raw Decoded Include TAF

Data at: 0457 UTC 25 May 2018

KEBG 250435Z AUTO 14004KT 10SM CLR 26/23 A3001 RMK AO2 T02600230
KEBG 250415Z AUTO 13004KT 10SM CLR 27/23 A3001 RMK AO2 T02670229
KEBG 250355Z AUTO 12006KT 10SM CLR 27/23 A3001 RMK AO2 T02710230
KEBG 250335Z AUTO 13006KT 10SM CLR 27/23 A3000 RMK AO2 T02720229
KEBG 250315Z AUTO 12005KT 10SM CLR 28/23 A2999 RMK AO2 T02750227
KEBG 250255Z AUTO 12006KT 10SM CLR 28/23 A2999 RMK AO2 T02790225
KEBG 250235Z AUTO 12008KT 10SM CLR 28/22 A2997 RMK AO2 T02830223
KEBG 250215Z AUTO 11009G14KT 10SM CLR 29/22 A2997 RMK AO2 T02860222
KEBG 250155Z AUTO 10009KT 10SM CLR 29/22 A2997 RMK AO2 T02900222
KEBG 250135Z AUTO 11009KT 10SM CLR 30/22 A2996 RMK AO2 T02950215
KEBG 250115Z AUTO 12010G16KT 10SM CLR 30/21 A2995 RMK AO2 T03010210
KEBG 250055Z AUTO 11011G15KT 10SM CLR 31/21 A2994 RMK AO2 T03100210
KEBG 250035Z AUTO 10011G17KT 10SM CLR 32/21 A2994 RMK AO2 T03160208
KEBG 250015Z AUTO 10013G20KT 10SM SCT044 32/21 A2994 RMK AO2 T03230205
KEBG 242355Z AUTO 11014G17KT 10SM SCT046 SCT050 33/21 A2994 RMK AO2 T03310205 10365 20325
KEBG 242335Z AUTO 10013G18KT 10SM CLR 34/20 A2994 RMK AO2 T03360204
KEBG 242315Z AUTO 10014KT 10SM SCT046 34/21 A2994 RMK AO2 LTG DSNT N T03400206
KEBG 242255Z AUTO 10015G21KT 10SM SCT046 SCT070 35/21 A2993 RMK AO2 T03450206
KEBG 242235Z AUTO 10016G20KT 10SM -DZ SCT046 SCT060 SCT110 34/21 A2993 RMK AO2 T03360208
KEBG 242215Z AUTO 11014KT 10SM -RA SCT046 SCT065 SCT100 33/21 A2993 RMK AO2 T03270214
KEBG 242155Z AUTO 11015G18KT 10SM SCT050 SCT070 36/20 A2993 RMK AO2 LTG DSNT W THRU N T03560201
KEBG 242135Z AUTO 10013G17KT 10SM VCTS SCT048 SCT055 BKN070 36/21 A2993 RMK AO2 T03560205
KEBG 242115Z AUTO 12014KT 10SM SCT046 SCT060 36/20 A2994 RMK AO2 T03570201
KEBG 242055Z AUTO 11013KT 10SM SCT060 36/20 A2994 RMK AO2 T03600199
KEBG 242035Z AUTO 11004KT 10SM SCT060 36/17 A2995 RMK AO2 T03600170
KEBG 242015Z AUTO 14006KT 10SM SCT060 36/17 A2996 RMK AO2 T03580167
KEBG 241955Z AUTO 19005KT 10SM SCT060 35/16 A2996 RMK AO2 T03490164
KEBG 241935Z AUTO 08004KT 10SM SCT050 36/18 A2997 RMK AO2 T03560175
KEBG 241915Z AUTO 17007KT 10SM SCT050 36/18 A2997 RMK AO2 T03560177
KEBG 241855Z AUTO 14008KT 110V230 10SM SCT050 35/18 A2998 RMK AO2 T03510177
KEBG 241835Z AUTO 14004KT 10SM SCT050 34/18 A2998 RMK AO2 T03420181
KEBG 241815Z AUTO 16003KT 10SM CLR 35/19 A2999 RMK AO2 T03450188
KEBG 241755Z AUTO 11007KT 10SM SCT044 34/18 A3000 RMK AO2 T03420182 10342 20235
KEBG 241735Z AUTO 17003KT 10SM SCT042 34/20 A3001 RMK AO2 T03390195
KEBG 241715Z AUTO 17004KT 10SM SCT040 34/19 A3002 RMK AO2 T03360194
KEBG 241655Z AUTO 20004KT 10SM SCT034 SCT040 32/20 A3002 RMK AO2 T03230203
KEBG 241635Z AUTO 18004KT 10SM SCT034 32/21 A3002 RMK AO2 T03210210
KEBG 241615Z AUTO 15003KT 10SM SCT030 32/21 A3003 RMK AO2 T03170213
KEBG 241555Z AUTO 16006KT 10SM SCT024 SCT039 SCT046 31/21 A3003 RMK AO2 T03070213
KEBG 241535Z AUTO 20005KT 10SM BKN024 BKN039 BKN047 31/22 A3003 RMK AO2 T03070219
KEBG 241515Z AUTO 15005KT 10SM SCT022 BKN029 BKN050 30/23 A3003 RMK AO2 T02960225
KEBG 241455Z AUTO 17004KT 10SM SCT016 SCT025 SCT030 30/23 A3003 RMK AO2 T02950226
KEBG 241435Z AUTO 21005KT 10SM BKN014 BKN025 BKN030 30/23 A3003 RMK AO2 T02950229
KEBG 241355Z AUTO 11003KT 10SM SCT007 27/25 A3002 RMK AO2 T02720245
KEBG 241335Z AUTO 00000KT 7SM SCT003 26/25 A3002 RMK AO2 T02610245
KEBG 241315Z AUTO 00000KT 5SM BR BKN003 26/24 A3002 RMK AO2 T02550240
KEBG 241255Z AUTO 00000KT 4SM BR BKN003 25/24 A3002 RMK AO2 T02480235
KEBG 241235Z AUTO 00000KT 5SM BR SCT003 24/23 A3002 RMK AO2 T02430230
KEBG 241215Z AUTO 00000KT 4SM BR CLR 24/22 A3001 RMK AO2 T02360223
KEBG 241155Z AUTO 00000KT 3SM BR CLR 24/22 A3001 RMK AO2 T02350221 10252 20233
KEBG 241135Z AUTO 00000KT 5SM BR CLR 23/22 A3001 RMK AO2 T02330220
KEBG 241115Z AUTO 00000KT 5SM BR CLR 24/23 A3000 RMK AO2 T02380225
KEBG 241055Z AUTO 00000KT 7SM CLR 24/23 A3000 RMK AO2 T02400226
KEBG 241035Z AUTO 00000KT 7SM CLR 24/23 A2999 RMK AO2 T02400226
KEBG 241015Z AUTO 00000KT 5SM BR CLR 24/22 A2999 RMK AO2 T02380224
KEBG 240955Z AUTO 00000KT 5SM BR CLR 24/23 A2999 RMK AO2 T02430228
KEBG 240935Z AUTO 05003KT 7SM SCT011 25/23 A2999 RMK AO2 T02450230
KEBG 240915Z AUTO 00000KT 7SM BKN011 25/23 A2998 RMK AO2 T02460231
KEBG 240855Z AUTO 00000KT 7SM OVC011 25/23 A2998 RMK AO2 T02450230
KEBG 240835Z AUTO 00000KT 7SM BKN013 25/23 A2999 RMK AO2 T02450228
KEBG 240815Z AUTO 00000KT 5SM BR CLR 25/23 A2999 RMK AO2 T02450229
KEBG 240755Z AUTO 00000KT 7SM CLR 25/23 A2999 RMK AO2 T02450228
KEBG 240735Z AUTO 00000KT 7SM SCT013 25/23 A2999 RMK AO2 T02460228
KEBG 240715Z AUTO 00000KT 7SM SCT015 25/23 A2999 RMK AO2 T02470229
KEBG 240655Z AUTO 00000KT 7SM SCT015 25/23 A2999 RMK AO2 T02500230
KEBG 240635Z AUTO 09003KT 10SM SCT013 SCT018 25/23 A2999 RMK AO2 T02500230
KEBG 240615Z AUTO 00000KT 10SM BKN013 25/23 A3000 RMK AO2 T02500230
KEBG 240555Z AUTO 11003KT 10SM CLR 25/23 A2999 RMK AO2 T02480226 10316 20248 403610232
KEBG 240535Z AUTO 12004KT 10SM CLR 25/23 A2999 RMK AO2 T02500226
KEBG 240515Z AUTO 11004KT 10SM CLR 26/23 A2999 RMK AO2 T02570227
KEBG 240455Z AUTO 11004KT 10SM CLR 26/23 A2999 RMK AO2 T02610228
KEBG 240435Z AUTO 11006KT 10SM CLR 26/23 A2999 RMK AO2 T02630227
KEBG 240415Z AUTO 13006KT 10SM CLR 27/23 A2998 RMK AO2 T02660226
KEBG 240355Z AUTO 11007KT 10SM CLR 27/23 A2998 RMK AO2 T02700226
KEBG 240335Z AUTO 12007KT 10SM CLR 27/23 A2998 RMK AO2 T02720225
KEBG 240315Z AUTO 10007KT 10SM CLR 28/22 A2996 RMK AO2 T02750221
KEBG 240255Z AUTO 11008KT 10SM CLR 28/22 A2996 RMK AO2 T02790219
KEBG 240235Z AUTO 11008KT 10SM CLR 28/22 A2995 RMK AO2 T02820217
KEBG 240215Z AUTO 11009KT 10SM CLR 29/22 A2996 RMK AO2 T02850215
KEBG 240155Z AUTO 11009KT 10SM CLR 29/22 A2995 RMK AO2 T02900216
KEBG 240135Z AUTO 11011KT 10SM CLR 29/22 A2994 RMK AO2 T02940215
KEBG 240115Z AUTO 11010G14KT 10SM CLR 30/22 A2993 RMK AO2 T02980215
KEBG 240055Z AUTO 11012G17KT 10SM CLR 30/21 A2992 RMK AO2 T03030213
KEBG 240035Z AUTO 11011KT 10SM SCT047 31/21 A2991 RMK AO2 T03100212
KEBG 240015Z AUTO 10012G15KT 10SM SCT046 31/21 A2991 RMK AO2 T03110212
KEBG 232355Z AUTO 11012KT 10SM SCT037 BKN046 32/21 A2991 RMK AO2 T03170211 10361 20317
KEBG 232335Z AUTO 11012KT 10SM CLR 32/21 A2991 RMK AO2 T03210211
KEBG 232315Z AUTO 11013KT 10SM SCT085 33/21 A2990 RMK AO2 T03310212
KEBG 232255Z AUTO 12012KT 10SM SCT045 BKN055 OVC085 32/21 A2991 RMK AO2 T03240211
KEBG 232235Z AUTO 12013KT 10SM SCT042 BKN055 OVC065 33/21 A2990 RMK AO2 T03270211
KEBG 232215Z AUTO 12012G16KT 10SM BKN045 OVC050 33/21 A2990 RMK AO2 T03310209
KEBG 232155Z AUTO 11016KT 10SM BKN045 BKN065 BKN075 34/21 A2990 RMK AO2 T03400205
KEBG 232135Z AUTO 12013KT 10SM SCT046 BKN060 OVC110 33/20 A2990 RMK AO2 T03330202
KEBG 232115Z AUTO 11011KT 10SM BKN047 BKN060 OVC100 34/20 A2990 RMK AO2 T03360202
KEBG 232055Z AUTO 09010G19KT 10SM SCT060 BKN080 BKN100 35/20 A2990 RMK AO2 T03510203
KEBG 232035Z AUTO 10014KT 10SM SCT060 BKN070 35/21 A2990 RMK AO2 T03460209
KEBG 232015Z AUTO 10013G17KT 10SM SCT047 BKN060 BKN070 34/20 A2991 RMK AO2 T03430200
KEBG 231955Z AUTO 15009G14KT 10SM SCT060 36/17 A2991 RMK AO2 T03580168
KEBG 231935Z AUTO 14003G14KT 10SM 6 35/17 A2992 RMK AO2 T03510166
KEBG 231915Z AUTO 16006G15KT 10SM SCT050 35/16 A2993 RMK AO2 T03530162
KEBG 231855Z AUTO 16007KT 10SM SCT050 35/17 A2994 RMK AO2 LTG DSNT NE T03500170
KEBG 231835Z AUTO 12012G15KT 10SM SCT050 34/17 A2994 RMK AO2 T03380170
KEBG 231815Z AUTO 14011G14KT 100V160 10SM SCT050 33/18 A2995 RMK AO2 T03340179
KEBG 231755Z AUTO 14008G14KT 10SM SCT046 34/18 A2995 RMK AO2 T03360184 10340 20232
KEBG 231735Z AUTO 11009KT 10SM SCT043 34/19 A2996 RMK AO2 T03350187
KEBG 231715Z AUTO 14009KT 10SM SCT6 6 T038 SCT044 33/19 A2997 RMK AO2 T03290193